sensor_id;sensor_type;location;lat;lon;timestamp;pressure;altitude;pressure_sealevel;temperature;humidity
42761;BME280;31672;47.638;19.026;2023-07-29T00:03:58;99669.03;;;18.80;100.00
42761;BME280;31672;47.638;19.026;2023-07-29T00:09:02;99664.94;;;18.78;100.00
42761;BME280;31672;47.638;19.026;2023-07-29T00:14:06;99664.81;;;18.73;100.00
42761;BME280;31672;47.638;19.026;2023-07-29T00:19:10;99678.16;;;18.67;100.00
42761;BME280;31672;47.638;19.026;2023-07-29T00:24:13;99669.34;;;18.60;100.00
42761;BME280;31672;47.638;19.026;2023-07-29T00:29:17;99674.84;;;18.54;100.00
42761;BME280;31672;47.638;19.026;2023-07-29T00:34:20;99681.16;;;18.48;100.00
42761;BME280;31672;47.638;19.026;2023-07-29T00:39:24;99671.31;;;18.41;100.00
42761;BME280;31672;47.638;19.026;2023-07-29T00:44:27;99674.34;;;18.33;100.00
42761;BME280;31672;47.638;19.026;2023-07-29T00:49:31;99667.06;;;18.22;100.00
42761;BME280;31672;47.638;19.026;2023-07-29T00:54:35;99663.88;;;18.13;100.00
42761;BME280;31672;47.638;19.026;2023-07-29T00:59:39;99663.06;;;18.13;100.00
42761;BME280;31672;47.638;19.026;2023-07-29T01:04:43;99670.53;;;18.11;100.00
42761;BME280;31672;47.638;19.026;2023-07-29T01:16:00;99666.06;;;18.05;100.00
42761;BME280;31672;47.638;19.026;2023-07-29T01:21:08;99669.09;;;17.97;100.00
42761;BME280;31672;47.638;19.026;2023-07-29T01:26:13;99657.16;;;17.92;100.00
42761;BME280;31672;47.638;19.026;2023-07-29T01:31:42;99670.00;;;17.90;100.00
42761;BME280;31672;47.638;19.026;2023-07-29T01:36:50;99667.41;;;17.84;100.00
42761;BME280;31672;47.638;19.026;2023-07-29T01:41:55;99658.97;;;17.80;100.00
42761;BME280;31672;47.638;19.026;2023-07-29T01:46:59;99659.22;;;17.79;100.00
42761;BME280;31672;47.638;19.026;2023-07-29T01:52:03;99653.03;;;17.78;100.00
42761;BME280;31672;47.638;19.026;2023-07-29T01:57:08;99658.41;;;17.78;100.00
42761;BME280;31672;47.638;19.026;2023-07-29T02:02:11;99656.53;;;17.79;100.00
42761;BME280;31672;47.638;19.026;2023-07-29T02:07:15;99651.63;;;17.76;100.00
42761;BME280;31672;47.638;19.026;2023-07-29T02:12:18;99650.19;;;17.73;100.00
42761;BME280;31672;47.638;19.026;2023-07-29T02:17:22;99648.16;;;17.69;100.00
42761;BME280;31672;47.638;19.026;2023-07-29T02:22:25;99667.06;;;17.62;100.00
42761;BME280;31672;47.638;19.026;2023-07-29T02:27:29;99660.13;;;17.54;100.00
42761;BME280;31672;47.638;19.026;2023-07-29T02:32:32;99652.16;;;17.48;100.00
42761;BME280;31672;47.638;19.026;2023-07-29T02:37:37;99665.00;;;17.46;100.00
42761;BME280;31672;47.638;19.026;2023-07-29T02:42:40;99673.72;;;17.41;100.00
42761;BME280;31672;47.638;19.026;2023-07-29T02:47:44;99669.03;;;17.36;100.00
42761;BME280;31672;47.638;19.026;2023-07-29T02:52:47;99663.97;;;17.28;100.00
42761;BME280;31672;47.638;19.026;2023-07-29T02:57:54;99671.72;;;17.18;100.00
42761;BME280;31672;47.638;19.026;2023-07-29T03:02:57;99673.44;;;17.12;100.00
42761;BME280;31672;47.638;19.026;2023-07-29T03:08:01;99678.81;;;17.12;100.00
42761;BME280;31672;47.638;19.026;2023-07-29T03:13:05;99677.75;;;17.13;100.00
42761;BME280;31672;47.638;19.026;2023-07-29T03:18:08;99680.44;;;17.13;100.00
42761;BME280;31672;47.638;19.026;2023-07-29T03:23:12;99680.66;;;17.12;100.00
42761;BME280;31672;47.638;19.026;2023-07-29T03:28:15;99680.91;;;17.10;100.00
42761;BME280;31672;47.638;19.026;2023-07-29T03:33:19;99683.34;;;17.12;100.00
42761;BME280;31672;47.638;19.026;2023-07-29T03:38:23;99680.91;;;17.10;100.00
42761;BME280;31672;47.638;19.026;2023-07-29T03:43:26;99680.44;;;17.13;100.00
42761;BME280;31672;47.638;19.026;2023-07-29T03:48:30;99680.81;;;17.17;100.00
42761;BME280;31672;47.638;19.026;2023-07-29T03:53:34;99682.84;;;17.22;100.00
42761;BME280;31672;47.638;19.026;2023-07-29T03:58:39;99692.47;;;17.29;100.00
42761;BME280;31672;47.638;19.026;2023-07-29T04:03:44;99693.88;;;17.32;100.00
42761;BME280;31672;47.638;19.026;2023-07-29T04:08:48;99697.75;;;17.36;100.00
42761;BME280;31672;47.638;19.026;2023-07-29T04:13:52;99699.53;;;17.42;100.00
42761;BME280;31672;47.638;19.026;2023-07-29T04:18:56;99699.38;;;17.55;100.00
42761;BME280;31672;47.638;19.026;2023-07-29T04:23:59;99691.75;;;17.71;100.00
42761;BME280;31672;47.638;19.026;2023-07-29T04:29:03;99676.19;;;17.91;100.00
42761;BME280;31672;47.638;19.026;2023-07-29T04:34:06;99663.88;;;18.13;100.00
42761;BME280;31672;47.638;19.026;2023-07-29T04:39:10;99667.91;;;18.34;100.00
42761;BME280;31672;47.638;19.026;2023-07-29T04:44:14;99672.16;;;18.54;100.00
42761;BME280;31672;47.638;19.026;2023-07-29T04:49:17;99674.28;;;18.75;100.00
42761;BME280;31672;47.638;19.026;2023-07-29T04:54:21;99680.03;;;18.90;100.00
42761;BME280;31672;47.638;19.026;2023-07-29T04:59:25;99684.69;;;19.07;100.00
42761;BME280;31672;47.638;19.026;2023-07-29T05:04:28;99676.72;;;19.23;100.00
42761;BME280;31672;47.638;19.026;2023-07-29T05:09:32;99688.63;;;19.39;100.00
42761;BME280;31672;47.638;19.026;2023-07-29T05:14:35;99686.47;;;19.53;100.00
42761;BME280;31672;47.638;19.026;2023-07-29T05:19:39;99680.13;;;19.71;100.00
42761;BME280;31672;47.638;19.026;2023-07-29T05:24:42;99688.38;;;19.93;100.00
42761;BME280;31672;47.638;19.026;2023-07-29T05:29:46;99694.63;;;20.10;100.00
42761;BME280;31672;47.638;19.026;2023-07-29T05:34:50;99701.09;;;20.26;100.00
42761;BME280;31672;47.638;19.026;2023-07-29T05:39:53;99701.38;;;20.41;100.00
42761;BME280;31672;47.638;19.026;2023-07-29T05:44:57;99707.03;;;20.56;100.00
42761;BME280;31672;47.638;19.026;2023-07-29T05:50:01;99701.97;;;20.77;100.00
42761;BME280;31672;47.638;19.026;2023-07-29T05:55:08;99722.50;;;20.95;100.00
42761;BME280;31672;47.638;19.026;2023-07-29T06:00:12;99724.84;;;21.08;100.00
42761;BME280;31672;47.638;19.026;2023-07-29T06:05:16;99729.34;;;21.19;100.00
42761;BME280;31672;47.638;19.026;2023-07-29T06:10:20;99728.66;;;21.29;97.09
42761;BME280;31672;47.638;19.026;2023-07-29T06:15:23;99730.44;;;21.40;92.53
42761;BME280;31672;47.638;19.026;2023-07-29T06:20:27;99733.63;;;21.54;91.97
42761;BME280;31672;47.638;19.026;2023-07-29T06:25:30;99739.81;;;21.76;88.82
42761;BME280;31672;47.638;19.026;2023-07-29T06:30:34;99738.81;;;22.04;89.78
42761;BME280;31672;47.638;19.026;2023-07-29T06:35:38;99734.47;;;22.30;87.29
42761;BME280;31672;47.638;19.026;2023-07-29T06:40:41;99737.13;;;22.52;86.01
42761;BME280;31672;47.638;19.026;2023-07-29T06:45:45;99737.06;;;22.74;82.95
42761;BME280;31672;47.638;19.026;2023-07-29T06:50:49;99722.34;;;22.97;81.50
42761;BME280;31672;47.638;19.026;2023-07-29T06:55:54;99725.72;;;23.19;80.31
42761;BME280;31672;47.638;19.026;2023-07-29T07:00:58;99714.19;;;23.39;79.92
42761;BME280;31672;47.638;19.026;2023-07-29T07:06:02;99718.66;;;23.66;81.19
42761;BME280;31672;47.638;19.026;2023-07-29T07:11:06;99719.56;;;23.92;77.60
42761;BME280;31672;47.638;19.026;2023-07-29T07:16:10;99711.50;;;24.17;75.33
42761;BME280;31672;47.638;19.026;2023-07-29T07:21:14;99711.00;;;24.36;73.46
42761;BME280;31672;47.638;19.026;2023-07-29T07:26:17;99709.91;;;24.62;74.36
42761;BME280;31672;47.638;19.026;2023-07-29T07:31:21;99704.72;;;24.81;71.32
42761;BME280;31672;47.638;19.026;2023-07-29T07:36:25;99704.47;;;25.08;68.63
42761;BME280;31672;47.638;19.026;2023-07-29T07:41:29;99704.97;;;25.20;64.50
42761;BME280;31672;47.638;19.026;2023-07-29T07:46:33;99688.59;;;25.30;61.43
42761;BME280;31672;47.638;19.026;2023-07-29T07:51:37;99704.91;;;25.41;62.65
42761;BME280;31672;47.638;19.026;2023-07-29T07:56:40;99700.56;;;25.29;63.84
42761;BME280;31672;47.638;19.026;2023-07-29T08:01:44;99697.34;;;25.17;62.89
42761;BME280;31672;47.638;19.026;2023-07-29T08:06:47;99701.16;;;25.21;63.25
42761;BME280;31672;47.638;19.026;2023-07-29T08:11:51;99693.81;;;25.27;62.08
42761;BME280;31672;47.638;19.026;2023-07-29T08:16:54;99693.72;;;25.42;59.05
42761;BME280;31672;47.638;19.026;2023-07-29T08:21:58;99684.16;;;25.55;59.49
42761;BME280;31672;47.638;19.026;2023-07-29T08:27:02;99685.19;;;25.69;58.94
42761;BME280;31672;47.638;19.026;2023-07-29T08:32:06;99682.47;;;25.79;59.04
42761;BME280;31672;47.638;19.026;2023-07-29T08:37:10;99682.06;;;25.96;59.02
42761;BME280;31672;47.638;19.026;2023-07-29T08:42:15;99675.72;;;26.11;56.56
42761;BME280;31672;47.638;19.026;2023-07-29T08:47:22;99673.97;;;26.25;56.72
42761;BME280;31672;47.638;19.026;2023-07-29T08:52:26;99665.63;;;26.51;57.50
42761;BME280;31672;47.638;19.026;2023-07-29T08:57:30;99663.56;;;26.66;56.43
42761;BME280;31672;47.638;19.026;2023-07-29T09:02:34;99661.47;;;26.87;55.74
42761;BME280;31672;47.638;19.026;2023-07-29T09:07:38;99661.56;;;27.06;50.67
42761;BME280;31672;47.638;19.026;2023-07-29T09:12:43;99652.44;;;27.16;52.20
42761;BME280;31672;47.638;19.026;2023-07-29T09:17:46;99659.47;;;27.22;51.20
42761;BME280;31672;47.638;19.026;2023-07-29T09:22:50;99649.91;;;27.25;51.49
42761;BME280;31672;47.638;19.026;2023-07-29T09:28:02;99638.19;;;27.24;51.97
42761;BME280;31672;47.638;19.026;2023-07-29T09:33:10;99628.97;;;27.39;52.15
42761;BME280;31672;47.638;19.026;2023-07-29T09:38:14;99628.72;;;27.59;52.21
42761;BME280;31672;47.638;19.026;2023-07-29T09:43:19;99623.28;;;27.78;50.66
42761;BME280;31672;47.638;19.026;2023-07-29T09:48:23;99634.84;;;27.89;48.08
42761;BME280;31672;47.638;19.026;2023-07-29T09:53:26;99629.03;;;27.95;46.38
42761;BME280;31672;47.638;19.026;2023-07-29T09:58:30;99633.31;;;28.02;45.73
42761;BME280;31672;47.638;19.026;2023-07-29T10:03:34;99638.41;;;28.08;45.87
42761;BME280;31672;47.638;19.026;2023-07-29T10:08:39;99631.38;;;28.21;45.82
42761;BME280;31672;47.638;19.026;2023-07-29T10:13:44;99626.22;;;28.52;46.44
42761;BME280;31672;47.638;19.026;2023-07-29T10:19:09;99627.44;;;28.60;44.60
42761;BME280;31672;47.638;19.026;2023-07-29T10:24:18;99634.91;;;28.54;44.17
42761;BME280;31672;47.638;19.026;2023-07-29T10:29:24;99625.75;;;28.31;44.53
42761;BME280;31672;47.638;19.026;2023-07-29T10:34:28;99648.72;;;28.11;44.09
42761;BME280;31672;47.638;19.026;2023-07-29T10:39:40;99633.53;;;27.86;45.08
42761;BME280;31672;47.638;19.026;2023-07-29T10:44:51;99636.00;;;27.64;45.95
42761;BME280;31672;47.638;19.026;2023-07-29T10:49:57;99632.69;;;27.48;46.73
42761;BME280;31672;47.638;19.026;2023-07-29T10:55:03;99632.81;;;27.38;47.72
42761;BME280;31672;47.638;19.026;2023-07-29T11:00:08;99630.97;;;27.33;47.44
42761;BME280;31672;47.638;19.026;2023-07-29T11:05:18;99626.63;;;27.51;48.21
42761;BME280;31672;47.638;19.026;2023-07-29T11:10:22;99622.31;;;27.88;47.55
42761;BME280;31672;47.638;19.026;2023-07-29T11:15:28;99615.41;;;28.28;46.33
42761;BME280;31672;47.638;19.026;2023-07-29T11:20:33;99609.91;;;28.61;46.38
42761;BME280;31672;47.638;19.026;2023-07-29T11:25:37;99606.72;;;28.86;45.94
42761;BME280;31672;47.638;19.026;2023-07-29T11:30:41;99602.47;;;29.08;44.77
42761;BME280;31672;47.638;19.026;2023-07-29T11:35:45;99603.06;;;29.32;45.38
42761;BME280;31672;47.638;19.026;2023-07-29T11:41:00;99600.50;;;29.49;43.75
42761;BME280;31672;47.638;19.026;2023-07-29T11:46:03;99594.59;;;29.70;43.96
42761;BME280;31672;47.638;19.026;2023-07-29T11:51:07;99604.22;;;29.81;43.83
42761;BME280;31672;47.638;19.026;2023-07-29T11:56:11;99592.50;;;29.89;42.48
42761;BME280;31672;47.638;19.026;2023-07-29T12:01:16;99587.75;;;30.03;42.89
42761;BME280;31672;47.638;19.026;2023-07-29T12:06:20;99587.16;;;30.06;41.97
42761;BME280;31672;47.638;19.026;2023-07-29T12:11:24;99579.25;;;30.27;42.23
42761;BME280;31672;47.638;19.026;2023-07-29T12:16:28;99575.06;;;30.61;42.03
42761;BME280;31672;47.638;19.026;2023-07-29T12:21:39;99566.75;;;30.75;41.85
42761;BME280;31672;47.638;19.026;2023-07-29T12:26:44;99563.84;;;30.71;39.94
42761;BME280;31672;47.638;19.026;2023-07-29T12:31:48;99561.97;;;30.58;40.44
42761;BME280;31672;47.638;19.026;2023-07-29T12:36:52;99571.00;;;30.58;39.75
42761;BME280;31672;47.638;19.026;2023-07-29T12:41:59;99559.75;;;30.29;40.27
42761;BME280;31672;47.638;19.026;2023-07-29T12:47:05;99559.56;;;30.25;41.24
42761;BME280;31672;47.638;19.026;2023-07-29T12:52:08;99555.25;;;30.33;40.96
42761;BME280;31672;47.638;19.026;2023-07-29T12:57:12;99548.69;;;30.11;40.65
42761;BME280;31672;47.638;19.026;2023-07-29T13:02:15;99550.28;;;29.68;41.48
42761;BME280;31672;47.638;19.026;2023-07-29T13:07:18;99552.84;;;29.50;43.62
42761;BME280;31672;47.638;19.026;2023-07-29T13:12:22;99547.91;;;29.52;42.95
42761;BME280;31672;47.638;19.026;2023-07-29T13:17:26;99545.47;;;29.51;43.47
42761;BME280;31672;47.638;19.026;2023-07-29T13:22:30;99532.59;;;29.96;42.14
42761;BME280;31672;47.638;19.026;2023-07-29T13:27:33;99529.00;;;30.72;41.73
42761;BME280;31672;47.638;19.026;2023-07-29T13:32:37;99517.22;;;31.37;38.85
42761;BME280;31672;47.638;19.026;2023-07-29T13:37:41;99519.13;;;31.88;36.06
42761;BME280;31672;47.638;19.026;2023-07-29T13:42:44;99513.28;;;32.07;36.19
42761;BME280;31672;47.638;19.026;2023-07-29T13:47:49;99504.75;;;31.91;36.21
42761;BME280;31672;47.638;19.026;2023-07-29T13:52:53;99497.16;;;31.88;36.14
42761;BME280;31672;47.638;19.026;2023-07-29T13:57:57;99497.03;;;31.85;34.69
42761;BME280;31672;47.638;19.026;2023-07-29T14:03:00;99501.69;;;31.76;35.04
42761;BME280;31672;47.638;19.026;2023-07-29T14:08:04;99491.53;;;31.67;34.80
42761;BME280;31672;47.638;19.026;2023-07-29T14:13:07;99487.31;;;31.70;35.76
42761;BME280;31672;47.638;19.026;2023-07-29T14:18:11;99485.19;;;31.76;35.97
42761;BME280;31672;47.638;19.026;2023-07-29T14:23:15;99477.16;;;31.62;35.53
42761;BME280;31672;47.638;19.026;2023-07-29T14:28:18;99474.41;;;31.79;35.39
42761;BME280;31672;47.638;19.026;2023-07-29T14:33:22;99486.34;;;31.83;34.10
42761;BME280;31672;47.638;19.026;2023-07-29T14:38:25;99477.03;;;32.14;35.36
42761;BME280;31672;47.638;19.026;2023-07-29T14:43:30;99469.22;;;32.33;35.13
42761;BME280;31672;47.638;19.026;2023-07-29T14:48:34;99475.88;;;32.23;34.20
42761;BME280;31672;47.638;19.026;2023-07-29T14:53:39;99474.72;;;31.86;35.53
42761;BME280;31672;47.638;19.026;2023-07-29T14:58:42;99468.13;;;31.27;36.00
42761;BME280;31672;47.638;19.026;2023-07-29T15:03:47;99473.50;;;30.75;36.83
42761;BME280;31672;47.638;19.026;2023-07-29T15:08:50;99474.81;;;30.29;37.99
42761;BME280;31672;47.638;19.026;2023-07-29T15:13:54;99478.88;;;29.86;38.75
42761;BME280;31672;47.638;19.026;2023-07-29T15:18:58;99473.47;;;29.50;38.93
42761;BME280;31672;47.638;19.026;2023-07-29T15:24:01;99476.22;;;29.28;40.30
42761;BME280;31672;47.638;19.026;2023-07-29T15:29:05;99479.78;;;29.15;40.25
42761;BME280;31672;47.638;19.026;2023-07-29T15:34:10;99481.25;;;28.98;41.18
42761;BME280;31672;47.638;19.026;2023-07-29T15:39:14;99479.13;;;28.95;42.18
42761;BME280;31672;47.638;19.026;2023-07-29T15:44:18;99483.97;;;28.98;42.47
42761;BME280;31672;47.638;19.026;2023-07-29T15:49:21;99481.84;;;28.95;41.95
42761;BME280;31672;47.638;19.026;2023-07-29T15:54:25;99496.81;;;28.84;42.46
42761;BME280;31672;47.638;19.026;2023-07-29T15:59:29;99500.59;;;28.74;43.37
42761;BME280;31672;47.638;19.026;2023-07-29T16:04:35;99499.50;;;28.62;43.84
42761;BME280;31672;47.638;19.026;2023-07-29T16:09:39;99503.31;;;28.47;43.81
42761;BME280;31672;47.638;19.026;2023-07-29T16:14:42;99509.09;;;28.32;44.46
42761;BME280;31672;47.638;19.026;2023-07-29T16:19:58;99511.25;;;28.16;44.92
42761;BME280;31672;47.638;19.026;2023-07-29T16:25:04;99507.69;;;28.02;45.19
42761;BME280;31672;47.638;19.026;2023-07-29T16:30:08;99516.13;;;27.86;45.36
42761;BME280;31672;47.638;19.026;2023-07-29T16:35:12;99518.03;;;27.72;45.79
42761;BME280;31672;47.638;19.026;2023-07-29T16:40:16;99525.81;;;27.60;45.99
42761;BME280;31672;47.638;19.026;2023-07-29T16:45:20;99523.81;;;27.46;46.67
42761;BME280;31672;47.638;19.026;2023-07-29T16:50:23;99527.28;;;27.33;47.14
42761;BME280;31672;47.638;19.026;2023-07-29T16:55:27;99547.94;;;27.20;48.04
42761;BME280;31672;47.638;19.026;2023-07-29T17:00:32;99540.22;;;27.04;48.22
42761;BME280;31672;47.638;19.026;2023-07-29T17:05:36;99554.06;;;26.88;49.01
42761;BME280;31672;47.638;19.026;2023-07-29T17:10:40;99556.09;;;26.78;50.10
42761;BME280;31672;47.638;19.026;2023-07-29T17:15:43;99558.69;;;26.64;51.45
42761;BME280;31672;47.638;19.026;2023-07-29T17:20:47;99550.97;;;26.47;51.96
42761;BME280;31672;47.638;19.026;2023-07-29T17:25:51;99551.06;;;26.32;52.35
42761;BME280;31672;47.638;19.026;2023-07-29T17:30:54;99552.00;;;26.22;52.45
42761;BME280;31672;47.638;19.026;2023-07-29T17:35:58;99560.25;;;26.12;52.88
42761;BME280;31672;47.638;19.026;2023-07-29T17:41:01;99556.00;;;26.01;52.14
42761;BME280;31672;47.638;19.026;2023-07-29T17:46:06;99563.16;;;25.92;52.85
42761;BME280;31672;47.638;19.026;2023-07-29T17:51:10;99552.66;;;25.75;51.20
42761;BME280;31672;47.638;19.026;2023-07-29T17:56:13;99551.38;;;25.62;50.61
42761;BME280;31672;47.638;19.026;2023-07-29T18:01:16;99555.25;;;25.51;50.45
42761;BME280;31672;47.638;19.026;2023-07-29T18:06:20;99562.41;;;25.36;50.93
42761;BME280;31672;47.638;19.026;2023-07-29T18:11:24;99564.38;;;25.26;50.99
42761;BME280;31672;47.638;19.026;2023-07-29T18:16:27;99567.69;;;25.13;51.88
42761;BME280;31672;47.638;19.026;2023-07-29T18:21:31;99572.06;;;24.98;53.11
42761;BME280;31672;47.638;19.026;2023-07-29T18:26:35;99558.56;;;24.83;54.33
42761;BME280;31672;47.638;19.026;2023-07-29T18:31:38;99582.22;;;24.67;55.23
42761;BME280;31672;47.638;19.026;2023-07-29T18:36:42;99581.19;;;24.53;56.21
42761;BME280;31672;47.638;19.026;2023-07-29T18:41:48;99585.50;;;24.34;57.95
42761;BME280;31672;47.638;19.026;2023-07-29T18:46:52;99588.25;;;24.23;59.50
42761;BME280;31672;47.638;19.026;2023-07-29T18:51:57;99589.34;;;24.12;60.37
42761;BME280;31672;47.638;19.026;2023-07-29T18:57:00;99598.28;;;24.02;61.19
42761;BME280;31672;47.638;19.026;2023-07-29T19:02:05;99597.47;;;23.97;61.07
42761;BME280;31672;47.638;19.026;2023-07-29T19:07:09;99612.38;;;23.89;61.62
42761;BME280;31672;47.638;19.026;2023-07-29T19:12:13;99593.66;;;23.83;62.64
42761;BME280;31672;47.638;19.026;2023-07-29T19:17:17;99597.97;;;23.68;63.39
42761;BME280;31672;47.638;19.026;2023-07-29T19:22:20;99607.94;;;23.47;64.90
42761;BME280;31672;47.638;19.026;2023-07-29T19:27:24;99598.38;;;23.30;65.76
42761;BME280;31672;47.638;19.026;2023-07-29T19:32:28;99583.44;;;23.17;66.09
42761;BME280;31672;47.638;19.026;2023-07-29T19:37:31;99569.31;;;23.05;67.24
42761;BME280;31672;47.638;19.026;2023-07-29T19:42:35;99565.72;;;22.94;66.98
42761;BME280;31672;47.638;19.026;2023-07-29T19:47:38;99570.56;;;22.87;66.85
42761;BME280;31672;47.638;19.026;2023-07-29T19:52:42;99566.16;;;22.76;67.13
42761;BME280;31672;47.638;19.026;2023-07-29T19:57:46;99558.53;;;22.67;67.09
42761;BME280;31672;47.638;19.026;2023-07-29T20:02:49;99537.34;;;22.59;67.43
42761;BME280;31672;47.638;19.026;2023-07-29T20:07:53;99552.47;;;22.50;68.05
42761;BME280;31672;47.638;19.026;2023-07-29T20:12:56;99572.72;;;22.42;68.51
42761;BME280;31672;47.638;19.026;2023-07-29T20:18:00;99564.53;;;22.32;68.72
42761;BME280;31672;47.638;19.026;2023-07-29T20:23:04;99578.53;;;22.24;69.47
42761;BME280;31672;47.638;19.026;2023-07-29T20:28:08;99576.63;;;22.20;69.54
42761;BME280;31672;47.638;19.026;2023-07-29T20:33:12;99587.47;;;22.20;69.23
42761;BME280;31672;47.638;19.026;2023-07-29T20:38:15;99589.09;;;22.21;68.73
42761;BME280;31672;47.638;19.026;2023-07-29T20:43:21;99591.03;;;22.25;68.37
42761;BME280;31672;47.638;19.026;2023-07-29T20:48:25;99593.72;;;22.25;68.44
42761;BME280;31672;47.638;19.026;2023-07-29T20:53:28;99599.38;;;22.24;68.21
42761;BME280;31672;47.638;19.026;2023-07-29T20:58:32;99586.66;;;22.19;67.86
42761;BME280;31672;47.638;19.026;2023-07-29T21:03:37;99595.53;;;22.14;68.19
42761;BME280;31672;47.638;19.026;2023-07-29T21:08:41;99590.06;;;22.09;67.58
42761;BME280;31672;47.638;19.026;2023-07-29T21:13:45;99591.44;;;22.12;67.14
42761;BME280;31672;47.638;19.026;2023-07-29T21:18:48;99601.50;;;22.16;66.78
42761;BME280;31672;47.638;19.026;2023-07-29T21:23:52;99609.59;;;22.16;66.55
42761;BME280;31672;47.638;19.026;2023-07-29T21:28:56;99616.97;;;22.21;66.26
42761;BME280;31672;47.638;19.026;2023-07-29T21:34:00;99618.91;;;22.26;65.78
42761;BME280;31672;47.638;19.026;2023-07-29T21:39:03;99620.81;;;22.30;65.63
42761;BME280;31672;47.638;19.026;2023-07-29T21:44:07;99624.09;;;22.32;65.34
42761;BME280;31672;47.638;19.026;2023-07-29T21:49:11;99638.94;;;22.30;65.18
42761;BME280;31672;47.638;19.026;2023-07-29T21:54:14;99638.41;;;22.28;64.87
42761;BME280;31672;47.638;19.026;2023-07-29T21:59:18;99637.31;;;22.29;64.60
42761;BME280;31672;47.638;19.026;2023-07-29T22:04:21;99631.94;;;22.34;64.47
42761;BME280;31672;47.638;19.026;2023-07-29T22:09:25;99634.38;;;22.35;64.45
42761;BME280;31672;47.638;19.026;2023-07-29T22:14:28;99641.16;;;22.33;64.63
42761;BME280;31672;47.638;19.026;2023-07-29T22:19:32;99645.44;;;22.29;64.48
42761;BME280;31672;47.638;19.026;2023-07-29T22:24:36;99653.56;;;22.29;64.20
42761;BME280;31672;47.638;19.026;2023-07-29T22:29:39;99644.94;;;22.32;64.17
42761;BME280;31672;47.638;19.026;2023-07-29T22:34:43;99653.56;;;22.29;64.88
42761;BME280;31672;47.638;19.026;2023-07-29T22:39:46;99657.00;;;22.19;65.12
42761;BME280;31672;47.638;19.026;2023-07-29T22:44:51;99657.00;;;22.19;64.98
42761;BME280;31672;47.638;19.026;2023-07-29T22:49:55;99656.69;;;22.15;65.28
42761;BME280;31672;47.638;19.026;2023-07-29T22:54:58;99654.78;;;22.16;64.96
42761;BME280;31672;47.638;19.026;2023-07-29T23:00:03;99653.72;;;22.17;64.92
42761;BME280;31672;47.638;19.026;2023-07-29T23:05:07;99654.03;;;22.21;65.01
42761;BME280;31672;47.638;19.026;2023-07-29T23:10:11;99661.56;;;22.18;65.23
42761;BME280;31672;47.638;19.026;2023-07-29T23:15:15;99666.97;;;22.13;66.03
42761;BME280;31672;47.638;19.026;2023-07-29T23:20:18;99661.91;;;22.00;66.75
42761;BME280;31672;47.638;19.026;2023-07-29T23:25:22;99655.84;;;21.88;67.58
42761;BME280;31672;47.638;19.026;2023-07-29T23:30:25;99654.09;;;21.77;67.18
42761;BME280;31672;47.638;19.026;2023-07-29T23:35:29;99651.09;;;21.73;67.07
42761;BME280;31672;47.638;19.026;2023-07-29T23:40:33;99656.25;;;21.75;66.55
42761;BME280;31672;47.638;19.026;2023-07-29T23:45:36;99661.38;;;21.71;67.33
42761;BME280;31672;47.638;19.026;2023-07-29T23:50:40;99659.41;;;21.67;67.55
42761;BME280;31672;47.638;19.026;2023-07-29T23:55:44;99659.84;;;21.58;67.76
